createdAt,value
2019-01-11T00:01:27.961Z,22.23
2019-01-11T00:03:58.870Z,22.00
2019-01-11T00:06:29.986Z,23.60
2019-01-11T00:09:01.106Z,23.20
2019-01-11T00:11:33.710Z,21.43
2019-01-11T00:14:05.123Z,21.20
2019-01-11T00:16:36.219Z,20.00
2019-01-11T00:19:07.828Z,20.63
2019-01-11T00:21:38.831Z,18.20
2019-01-11T00:24:11.358Z,20.90
2019-01-11T00:27:15.321Z,21.43
2019-01-11T00:29:46.542Z,20.20
2019-01-11T00:32:17.520Z,19.37
2019-01-11T00:34:48.754Z,18.90
2019-01-11T00:37:28.236Z,20.77
2019-01-11T00:40:28.928Z,19.00
2019-01-11T00:43:01.445Z,19.47
2019-01-11T00:45:48.069Z,20.30
2019-01-11T00:48:28.873Z,19.50
2019-01-11T00:51:00.023Z,19.60
2019-01-11T00:53:31.224Z,20.23
2019-01-11T00:56:02.361Z,19.20
2019-01-11T00:58:40.213Z,19.53
2019-01-11T01:01:11.517Z,20.13
2019-01-11T01:03:42.781Z,19.83
2019-01-11T01:06:14.032Z,20.87
2019-01-11T01:09:05.361Z,20.97
2019-01-11T01:11:44.511Z,19.30
2019-01-11T01:14:22.341Z,18.50
2019-01-11T01:16:53.436Z,18.20
2019-01-11T01:19:24.663Z,19.60
2019-01-11T01:21:55.983Z,17.40
2019-01-11T01:25:02.536Z,16.70
2019-01-11T01:27:33.856Z,18.57
2019-01-11T01:30:10.957Z,17.50
2019-01-11T01:32:45.749Z,18.67
2019-01-11T01:35:17.157Z,18.33
2019-01-11T01:37:48.349Z,17.63
2019-01-11T01:40:20.171Z,19.17
2019-01-11T01:43:02.517Z,20.10
2019-01-11T01:45:33.669Z,19.87
2019-01-11T01:48:09.280Z,18.60
2019-01-11T01:51:19.571Z,18.30
2019-01-11T01:54:15.263Z,16.83
2019-01-11T01:56:49.479Z,16.33
2019-01-11T01:59:20.752Z,16.87
2019-01-11T02:02:38.669Z,17.80
2019-01-11T02:05:11.961Z,17.27
2019-01-11T02:07:43.218Z,16.97
2019-01-11T02:10:15.188Z,16.70
2019-01-11T02:12:46.602Z,18.57
2019-01-11T02:15:34.966Z,16.67
2019-01-11T02:18:41.390Z,17.63
2019-01-11T02:21:13.697Z,16.67
2019-01-11T02:24:04.152Z,18.13
2019-01-11T02:26:36.377Z,20.13
2019-01-11T02:29:07.497Z,18.20
2019-01-11T02:31:41.930Z,15.90
2019-01-11T02:34:14.186Z,18.90
2019-01-11T02:36:45.245Z,17.47
2019-01-11T02:39:16.759Z,16.90
2019-01-11T02:42:03.759Z,15.77
2019-01-11T02:44:35.211Z,17.57
2019-01-11T02:47:06.513Z,17.37
2019-01-11T02:49:45.499Z,17.80
2019-01-11T02:52:33.175Z,16.43
2019-01-11T02:55:04.592Z,17.37
2019-01-11T02:57:35.652Z,16.50
2019-01-11T03:00:17.818Z,15.27
2019-01-11T03:02:50.330Z,15.97
2019-01-11T03:05:50.661Z,17.93
2019-01-11T03:08:37.594Z,16.77
2019-01-11T03:11:11.437Z,15.67
2019-01-11T03:13:42.551Z,16.23
2019-01-11T03:16:13.604Z,19.53
2019-01-11T03:18:44.545Z,18.80
2019-01-11T03:21:18.455Z,17.67
2019-01-11T03:23:52.153Z,19.07
2019-01-11T03:26:31.599Z,19.50
2019-01-11T03:29:03.771Z,20.63
2019-01-11T03:31:37.596Z,19.07
2019-01-11T03:34:09.455Z,19.17
2019-01-11T03:36:44.549Z,20.07
2019-01-11T03:39:29.751Z,20.57
2019-01-11T03:42:12.166Z,21.77
2019-01-11T03:44:48.070Z,20.20
2019-01-11T03:47:32.515Z,20.10
2019-01-11T03:50:04.128Z,21.70
2019-01-11T03:52:46.341Z,22.57
2019-01-11T03:55:18.162Z,20.07
2019-01-11T03:57:49.687Z,21.00
2019-01-11T04:00:23.761Z,20.33
2019-01-11T04:02:54.884Z,21.57
2019-01-11T04:05:28.557Z,22.60
2019-01-11T04:08:06.281Z,19.57
2019-01-11T04:10:37.551Z,23.87
2019-01-11T04:13:14.976Z,22.77
2019-01-11T04:15:46.236Z,21.27
2019-01-11T04:18:37.287Z,20.20
2019-01-11T04:21:08.424Z,22.63
2019-01-11T04:23:48.534Z,20.57
2019-01-11T04:26:20.388Z,22.80
2019-01-11T04:29:01.882Z,21.30
2019-01-11T04:31:36.774Z,22.07
2019-01-11T04:34:07.943Z,22.33
2019-01-11T04:36:39.156Z,22.50
2019-01-11T04:39:10.184Z,23.67
2019-01-11T04:41:41.197Z,23.17
2019-01-11T04:44:12.229Z,22.60
2019-01-11T04:46:43.148Z,23.10
2019-01-11T04:49:14.210Z,22.93
2019-01-11T04:51:45.250Z,22.10
2019-01-11T04:54:16.196Z,22.33
2019-01-11T04:56:47.186Z,24.20
2019-01-11T04:59:18.073Z,23.60
2019-01-11T05:01:49.048Z,24.30
2019-01-11T05:04:20.030Z,23.80
2019-01-11T05:06:54.253Z,25.20
2019-01-11T05:09:25.235Z,24.10
2019-01-11T05:11:56.324Z,21.77
2019-01-11T05:14:33.412Z,23.07
2019-01-11T05:17:04.638Z,21.53
2019-01-11T05:19:38.774Z,24.90
2019-01-11T05:22:20.916Z,24.63
2019-01-11T05:24:53.616Z,26.23
2019-01-11T05:27:42.062Z,21.30
2019-01-11T05:30:17.403Z,24.53
2019-01-11T05:32:48.669Z,24.43
2019-01-11T05:35:19.819Z,21.70
2019-01-11T05:37:51.002Z,23.57
2019-01-11T05:40:22.118Z,23.40
2019-01-11T05:42:59.669Z,24.73
2019-01-11T05:45:30.881Z,25.30
2019-01-11T05:48:02.006Z,23.10
2019-01-11T05:50:33.564Z,24.73
2019-01-11T05:53:06.051Z,22.87
2019-01-11T05:55:49.391Z,23.60
2019-01-11T05:58:37.795Z,23.00
2019-01-11T06:01:09.153Z,23.53
2019-01-11T06:03:43.169Z,26.83
2019-01-11T06:06:14.406Z,21.33
2019-01-11T06:08:47.360Z,20.50
2019-01-11T06:11:20.223Z,24.70
2019-01-11T06:13:52.686Z,23.00
2019-01-11T06:16:23.983Z,24.70
2019-01-11T06:18:55.538Z,23.13
2019-01-11T06:21:26.636Z,22.50
2019-01-11T06:23:57.845Z,22.87
2019-01-11T06:26:28.982Z,23.97
2019-01-11T06:28:59.986Z,24.30
2019-01-11T06:31:31.205Z,22.80
2019-01-11T06:34:02.199Z,23.57
2019-01-11T06:36:33.311Z,23.90
2019-01-11T06:39:06.511Z,23.97
2019-01-11T06:41:45.523Z,23.17
2019-01-11T06:44:16.439Z,23.97
2019-01-11T06:46:47.393Z,23.17
2019-01-11T06:49:18.374Z,24.30
2019-01-11T06:51:49.336Z,24.20
2019-01-11T06:54:20.298Z,24.23
2019-01-11T06:56:52.441Z,25.23
2019-01-11T06:59:23.455Z,24.63
2019-01-11T07:01:55.725Z,23.17
2019-01-11T07:04:26.777Z,25.50
2019-01-11T07:06:58.040Z,25.73
2019-01-11T07:09:30.853Z,23.80
2019-01-11T07:12:01.939Z,22.63
2019-01-11T07:14:34.159Z,24.00
2019-01-11T07:17:06.459Z,23.60
2019-01-11T07:19:38.595Z,23.40
2019-01-11T07:22:09.683Z,23.50
2019-01-11T07:25:04.129Z,20.63
2019-01-11T07:28:30.001Z,22.60
2019-01-11T07:31:08.971Z,19.23
2019-01-11T07:33:59.976Z,20.90
2019-01-11T07:36:42.117Z,22.07
2019-01-11T07:39:35.295Z,21.37
2019-01-11T07:42:11.991Z,22.17
2019-01-11T07:44:42.863Z,21.77
2019-01-11T07:47:14.031Z,23.07
2019-01-11T07:49:45.502Z,22.30
2019-01-11T07:52:19.785Z,26.53
2019-01-11T07:54:50.640Z,21.60
2019-01-11T07:57:22.611Z,21.17
2019-01-11T07:59:55.567Z,23.37
2019-01-11T08:02:26.900Z,24.63
2019-01-11T08:05:03.554Z,19.10
2019-01-11T08:07:34.821Z,22.33
2019-01-11T08:10:07.181Z,23.20
2019-01-11T08:12:39.414Z,23.43
2019-01-11T08:15:11.360Z,23.60
2019-01-11T08:17:42.693Z,22.10
2019-01-11T08:20:14.292Z,23.37
2019-01-11T08:22:45.415Z,25.67
2019-01-11T08:25:17.243Z,22.43
2019-01-11T08:27:55.306Z,21.57
2019-01-11T08:30:34.111Z,19.10
2019-01-11T08:33:07.637Z,19.73
2019-01-11T08:36:21.081Z,17.97
2019-01-11T08:39:08.916Z,18.73
2019-01-11T08:41:39.913Z,18.33
2019-01-11T08:47:06.842Z,14.50
2019-01-11T08:49:39.117Z,13.40
2019-01-11T08:52:09.975Z,13.40
2019-01-11T08:54:43.182Z,10.20
2019-01-11T08:57:16.678Z,11.63
2019-01-11T08:59:49.327Z,10.17
2019-01-11T09:02:20.680Z,11.07
2019-01-11T09:04:52.021Z,8.87
2019-01-11T09:07:23.506Z,8.50
2019-01-11T09:09:54.804Z,6.40
2019-01-11T09:12:26.040Z,6.90
2019-01-11T09:14:56.952Z,6.20
2019-01-11T09:17:28.130Z,6.60
2019-01-11T09:20:01.792Z,6.03
2019-01-11T09:22:33.023Z,7.27
2019-01-11T09:25:04.402Z,8.00
2019-01-11T09:31:24.608Z,7.87
2019-01-11T09:33:56.272Z,5.10
2019-01-11T09:36:29.975Z,5.80
2019-01-11T09:39:01.196Z,6.67
2019-01-11T09:41:38.188Z,5.10
2019-01-11T09:44:09.359Z,5.43
2019-01-11T09:46:40.360Z,5.83
2019-01-11T09:49:12.700Z,3.97
2019-01-11T09:52:00.672Z,4.53
2019-01-11T09:54:37.322Z,5.03
2019-01-11T09:57:24.330Z,6.07
2019-01-11T09:59:58.490Z,4.37
2019-01-11T10:02:38.741Z,5.00
2019-01-11T10:05:11.536Z,4.80
2019-01-11T10:07:47.668Z,3.90
2019-01-11T10:10:26.954Z,3.50
2019-01-11T10:13:04.215Z,5.07
2019-01-11T10:15:35.866Z,6.07
2019-01-11T10:18:07.141Z,5.17
2019-01-11T10:20:38.950Z,6.03
2019-01-11T10:23:17.724Z,4.93
2019-01-11T10:25:52.193Z,4.50
2019-01-11T10:28:30.446Z,5.10
2019-01-11T10:31:03.435Z,7.70
2019-01-11T10:33:36.313Z,6.33
2019-01-11T10:36:07.724Z,4.97
2019-01-11T10:38:38.959Z,5.17
2019-01-11T10:41:10.247Z,6.20
2019-01-11T10:43:41.511Z,4.80
2019-01-11T10:46:29.840Z,4.63
2019-01-11T10:49:01.475Z,4.10
2019-01-11T10:51:32.612Z,3.77
2019-01-11T10:54:04.200Z,4.20
2019-01-11T10:56:35.694Z,4.67
2019-01-11T10:59:07.125Z,3.57
2019-01-11T11:01:47.340Z,2.50
2019-01-11T11:04:18.453Z,4.53
2019-01-11T11:06:49.473Z,4.30
2019-01-11T11:09:20.674Z,3.17
2019-01-11T11:11:51.761Z,2.43
2019-01-11T11:14:22.912Z,3.27
2019-01-11T11:16:54.050Z,3.17
2019-01-11T11:19:25.161Z,3.30
2019-01-11T11:21:56.040Z,3.07
2019-01-11T11:24:27.336Z,3.73
2019-01-11T11:27:06.053Z,4.10
2019-01-11T11:29:42.525Z,2.70
2019-01-11T11:32:16.776Z,2.77
2019-01-11T11:34:51.686Z,3.27
2019-01-11T11:37:24.791Z,2.63
2019-01-11T11:39:55.749Z,2.10
2019-01-11T11:42:27.276Z,2.13
2019-01-11T11:44:58.493Z,2.40
2019-01-11T11:47:29.448Z,2.27
2019-01-11T11:50:00.584Z,2.43
2019-01-11T11:52:33.276Z,2.60
2019-01-11T11:55:23.818Z,2.60
2019-01-11T11:58:07.276Z,3.10
2019-01-11T12:00:38.737Z,2.30
2019-01-11T12:03:10.824Z,2.90
2019-01-11T12:05:41.794Z,2.67
2019-01-11T12:08:12.959Z,1.87
2019-01-11T12:10:44.011Z,2.60
2019-01-11T12:13:16.375Z,2.37
2019-01-11T12:15:48.015Z,3.13
2019-01-11T12:18:19.705Z,1.93
2019-01-11T12:20:55.767Z,2.67
2019-01-11T12:23:27.153Z,3.17
2019-01-11T12:26:03.397Z,2.40
2019-01-11T12:28:36.325Z,2.67
2019-01-11T12:31:09.168Z,2.83
2019-01-11T12:33:40.453Z,2.60
2019-01-11T12:36:11.515Z,2.53
2019-01-11T12:38:42.433Z,2.53
2019-01-11T12:41:13.508Z,2.83
2019-01-11T12:43:44.567Z,2.40
2019-01-11T12:46:16.387Z,2.20
2019-01-11T12:48:47.338Z,2.40
2019-01-11T12:51:18.479Z,2.47
2019-01-11T12:53:51.678Z,1.97
2019-01-11T12:56:22.921Z,1.87
2019-01-11T12:58:54.160Z,1.73
2019-01-11T13:01:25.849Z,1.93
2019-01-11T13:04:00.811Z,1.83
2019-01-11T13:06:35.471Z,2.10
2019-01-11T13:09:10.173Z,1.57
2019-01-11T13:11:41.931Z,1.60
2019-01-11T13:14:13.309Z,2.40
2019-01-11T13:16:44.581Z,2.63
2019-01-11T13:19:15.667Z,2.90
2019-01-11T13:21:46.918Z,2.60
2019-01-11T13:24:18.062Z,2.73
2019-01-11T13:26:52.516Z,2.87
2019-01-11T13:29:24.733Z,2.17
2019-01-11T13:31:56.453Z,2.53
2019-01-11T13:34:27.748Z,2.80
2019-01-11T13:36:59.071Z,1.93
2019-01-11T13:39:30.307Z,3.43
2019-01-11T13:42:01.948Z,3.40
2019-01-11T13:44:33.010Z,4.10
2019-01-11T13:47:07.099Z,3.67
2019-01-11T13:49:38.411Z,3.57
2019-01-11T13:52:09.960Z,4.27
2019-01-11T13:54:41.587Z,3.33
2019-01-11T13:57:12.635Z,2.33
2019-01-11T13:59:43.724Z,2.77
2019-01-11T14:02:15.005Z,4.10
2019-01-11T14:04:46.226Z,3.43
2019-01-11T14:07:18.478Z,3.93
2019-01-11T14:09:49.392Z,3.60
2019-01-11T14:12:20.307Z,3.47
2019-01-11T14:14:56.377Z,2.90
2019-01-11T14:17:29.798Z,3.20
2019-01-11T14:20:01.786Z,2.20
2019-01-11T14:22:33.043Z,4.13
2019-01-11T14:25:04.670Z,3.60
2019-01-11T14:27:37.811Z,5.30
2019-01-11T14:30:14.930Z,4.47
2019-01-11T14:32:46.571Z,4.57
2019-01-11T14:35:17.588Z,4.13
2019-01-11T14:37:48.512Z,4.30
2019-01-11T14:40:19.516Z,4.70
2019-01-11T14:42:50.848Z,4.50
2019-01-11T14:45:22.014Z,3.40
2019-01-11T14:47:53.232Z,3.80
2019-01-11T14:50:43.268Z,4.80
2019-01-11T14:53:14.510Z,3.77
2019-01-11T14:56:16.746Z,3.43
2019-01-11T14:58:56.678Z,5.07
2019-01-11T15:01:27.659Z,4.37
2019-01-11T15:03:58.748Z,4.03
2019-01-11T15:06:33.299Z,5.40
2019-01-11T15:09:06.886Z,6.70
2019-01-11T15:11:38.057Z,4.83
2019-01-11T15:14:11.194Z,3.90
2019-01-11T15:16:42.200Z,5.87
2019-01-11T15:19:14.093Z,4.97
2019-01-11T15:21:46.424Z,4.93
2019-01-11T15:24:20.480Z,5.27
2019-01-11T15:26:51.746Z,5.07
2019-01-11T15:29:22.900Z,7.37
2019-01-11T15:31:54.076Z,5.27
2019-01-11T15:34:25.007Z,6.47
2019-01-11T15:36:56.176Z,3.80
2019-01-11T15:39:27.317Z,3.70
2019-01-11T15:41:58.301Z,6.23
2019-01-11T15:44:29.460Z,5.53
2019-01-11T15:47:00.496Z,5.30
2019-01-11T15:49:31.704Z,7.80
2019-01-11T15:52:02.696Z,5.13
2019-01-11T15:54:34.674Z,6.20
2019-01-11T15:57:05.915Z,5.03
2019-01-11T16:00:00.628Z,6.77
2019-01-11T16:02:31.566Z,6.10
2019-01-11T16:05:02.655Z,4.53
2019-01-11T16:07:33.631Z,5.57
2019-01-11T16:10:21.160Z,6.93
2019-01-11T16:13:27.114Z,6.03
2019-01-11T16:16:40.158Z,5.70
2019-01-11T16:19:11.067Z,5.70
2019-01-11T16:21:41.964Z,5.50
2019-01-11T16:24:12.986Z,7.40
2019-01-11T16:26:44.158Z,7.27
2019-01-11T16:29:15.056Z,8.10
2019-01-11T16:31:46.160Z,5.60
2019-01-11T16:34:17.230Z,6.37
2019-01-11T16:36:48.327Z,6.27
2019-01-11T16:39:19.303Z,6.60
2019-01-11T16:41:50.453Z,7.47
2019-01-11T16:44:21.522Z,8.73
2019-01-11T16:46:52.509Z,6.83
2019-01-11T16:49:23.548Z,7.63
2019-01-11T16:51:54.546Z,7.27
2019-01-11T16:54:25.722Z,6.60
2019-01-11T16:56:56.649Z,7.50
2019-01-11T16:59:27.795Z,8.77
2019-01-11T17:01:58.734Z,8.73
2019-01-11T17:04:29.688Z,5.60
2019-01-11T17:07:08.767Z,6.10
2019-01-11T17:09:40.391Z,6.63
2019-01-11T17:12:11.360Z,7.27
2019-01-11T17:14:42.543Z,6.47
2019-01-11T17:17:13.659Z,5.70
2019-01-11T17:19:45.976Z,8.30
2019-01-11T17:22:21.618Z,5.20
2019-01-11T17:24:56.123Z,8.10
2019-01-11T17:27:27.543Z,7.90
2019-01-11T17:30:03.825Z,7.60
2019-01-11T17:32:35.549Z,7.43
2019-01-11T17:35:08.481Z,8.73
2019-01-11T17:37:41.705Z,7.50
2019-01-11T17:40:15.433Z,9.47
2019-01-11T17:42:47.395Z,6.77
2019-01-11T17:45:18.576Z,8.80
2019-01-11T17:47:51.871Z,10.33
2019-01-11T17:50:23.333Z,6.53
2019-01-11T17:52:59.807Z,7.83
2019-01-11T17:55:27.785Z,6.93
2019-01-11T17:57:58.895Z,10.23
2019-01-11T18:00:32.079Z,7.00
2019-01-11T18:03:15.939Z,7.97
2019-01-11T18:05:48.779Z,8.33
2019-01-11T18:08:30.163Z,6.77
2019-01-11T18:11:15.052Z,8.77
2019-01-11T18:13:46.485Z,8.37
2019-01-11T18:16:18.301Z,8.83
2019-01-11T18:18:51.822Z,7.70
2019-01-11T18:21:22.965Z,8.50
2019-01-11T18:23:54.077Z,7.20
2019-01-11T18:26:25.522Z,9.00
2019-01-11T18:28:57.077Z,10.30
2019-01-11T18:31:28.272Z,9.13
2019-01-11T18:33:59.444Z,8.43
2019-01-11T18:36:31.894Z,9.03
2019-01-11T18:39:04.395Z,8.23
2019-01-11T18:41:35.851Z,9.00
2019-01-11T18:44:07.159Z,7.90
2019-01-11T18:46:38.146Z,6.77
2019-01-11T18:49:09.205Z,8.33
2019-01-11T18:51:40.446Z,11.87
2019-01-11T18:54:11.744Z,6.70
2019-01-11T18:56:43.509Z,10.03
2019-01-11T18:59:15.642Z,9.90
2019-01-11T19:01:47.346Z,7.63
2019-01-11T19:04:18.593Z,7.57
2019-01-11T19:06:49.643Z,11.40
2019-01-11T19:09:29.280Z,10.83
2019-01-11T19:12:05.228Z,6.30
2019-01-11T19:14:36.386Z,10.50
2019-01-11T19:17:07.559Z,11.07
2019-01-11T19:19:38.727Z,6.70
2019-01-11T19:22:09.840Z,9.50
2019-01-11T19:24:40.789Z,11.17
2019-01-11T19:27:12.074Z,8.27
2019-01-11T19:29:43.534Z,9.90
2019-01-11T19:32:14.665Z,7.13
2019-01-11T19:34:45.863Z,8.20
2019-01-11T19:37:17.532Z,8.33
2019-01-11T19:39:48.647Z,8.20
2019-01-11T19:42:19.678Z,6.53
2019-01-11T19:44:50.676Z,10.87
2019-01-11T19:47:22.720Z,7.80
2019-01-11T19:49:53.755Z,8.27
2019-01-11T19:52:25.002Z,6.50
2019-01-11T19:54:57.716Z,7.97
2019-01-11T19:57:28.936Z,8.50
2019-01-11T20:00:00.256Z,8.07
2019-01-11T20:02:31.589Z,8.77
2019-01-11T20:05:03.629Z,9.10
2019-01-11T20:07:35.636Z,10.40
2019-01-11T20:10:10.045Z,5.73
2019-01-11T20:12:42.675Z,8.57
2019-01-11T20:15:14.311Z,8.57
2019-01-11T20:17:45.795Z,10.67
2019-01-11T20:20:17.289Z,7.63
2019-01-11T20:22:48.625Z,9.90
2019-01-11T20:25:23.481Z,8.23
2019-01-11T20:27:54.700Z,9.40
2019-01-11T20:30:28.298Z,9.40
2019-01-11T20:32:59.566Z,7.83
2019-01-11T20:35:33.524Z,8.60
2019-01-11T20:38:04.969Z,9.30
2019-01-11T20:40:37.180Z,10.37
2019-01-11T20:43:10.423Z,7.97
2019-01-11T20:45:42.380Z,9.37
2019-01-11T20:48:14.308Z,9.60
2019-01-11T20:50:46.202Z,9.10
2019-01-11T20:53:18.545Z,7.53
2019-01-11T20:55:50.059Z,8.43
2019-01-11T20:58:21.536Z,10.10
2019-01-11T21:00:52.713Z,7.27
2019-01-11T21:03:23.678Z,8.27
2019-01-11T21:05:54.961Z,11.20
2019-01-11T21:08:26.198Z,9.10
2019-01-11T21:10:57.404Z,9.30
2019-01-11T21:13:28.491Z,9.30
2019-01-11T21:15:59.729Z,5.90
2019-01-11T21:18:30.865Z,8.83
2019-01-11T21:21:01.952Z,9.23
2019-01-11T21:23:33.105Z,8.17
2019-01-11T21:26:04.376Z,8.30
2019-01-11T21:28:35.523Z,6.67
2019-01-11T21:31:06.852Z,8.00
2019-01-11T21:33:38.019Z,5.57
2019-01-11T21:36:09.279Z,7.33
2019-01-11T21:38:40.285Z,8.40
2019-01-11T21:41:11.316Z,7.70
2019-01-11T21:43:43.247Z,7.77
2019-01-11T21:46:14.564Z,8.73
2019-01-11T21:48:47.065Z,8.70
2019-01-11T21:51:18.329Z,6.10
2019-01-11T21:53:55.690Z,12.10
2019-01-11T21:56:43.024Z,10.53
2019-01-11T21:59:14.215Z,8.10
2019-01-11T22:01:45.241Z,10.17
2019-01-11T22:04:16.358Z,7.47
2019-01-11T22:06:47.398Z,8.03
2019-01-11T22:09:18.625Z,8.90
2019-01-11T22:11:49.619Z,8.83
2019-01-11T22:14:21.938Z,7.90
2019-01-11T22:16:53.246Z,6.90
2019-01-11T22:19:24.598Z,5.73
2019-01-11T22:21:55.895Z,9.93
2019-01-11T22:24:29.335Z,8.80
2019-01-11T22:27:00.817Z,6.70
2019-01-11T22:29:32.402Z,8.30
2019-01-11T22:32:04.639Z,9.10
2019-01-11T22:34:35.693Z,6.40
2019-01-11T22:37:06.836Z,6.60
2019-01-11T22:39:37.767Z,7.03
2019-01-11T22:42:08.963Z,8.77
2019-01-11T22:44:39.983Z,8.60
2019-01-11T22:47:10.952Z,7.50
2019-01-11T22:49:41.886Z,8.07
2019-01-11T22:52:12.925Z,7.90
2019-01-11T22:54:45.252Z,11.30
2019-01-11T22:57:16.293Z,7.47
2019-01-11T22:59:47.261Z,10.70
2019-01-11T23:02:46.175Z,7.77
2019-01-11T23:05:17.659Z,6.93
2019-01-11T23:07:59.959Z,6.03
2019-01-11T23:11:46.868Z,8.40
2019-01-11T23:14:17.999Z,7.90
2019-01-11T23:17:10.939Z,7.50
2019-01-11T23:19:42.362Z,7.70
2019-01-11T23:22:13.262Z,6.60
2019-01-11T23:24:44.555Z,9.20
2019-01-11T23:27:15.603Z,6.40
2019-01-11T23:29:46.642Z,6.83
2019-01-11T23:32:17.828Z,4.73
2019-01-11T23:34:49.046Z,4.93
2019-01-11T23:37:20.046Z,7.60
2019-01-11T23:39:51.278Z,9.67
2019-01-11T23:42:23.981Z,6.43
2019-01-11T23:44:56.971Z,7.13
2019-01-11T23:47:28.108Z,5.60
2019-01-11T23:50:03.811Z,7.50
2019-01-11T23:52:36.560Z,5.73
2019-01-11T23:55:08.941Z,9.00
2019-01-11T23:57:40.387Z,8.50
